createdAt,value
2019-05-19T00:00:12.389Z,-155
2019-05-19T00:01:42.228Z,-159
2019-05-19T00:02:12.228Z,-155
2019-05-19T00:02:42.224Z,-154
2019-05-19T00:03:12.234Z,-156
2019-05-19T00:03:42.319Z,-156
2019-05-19T00:04:12.243Z,-157
2019-05-19T00:04:42.284Z,-154
2019-05-19T00:05:12.237Z,-154
2019-05-19T00:05:42.260Z,-157
2019-05-19T00:06:12.276Z,-157
2019-05-19T00:06:42.314Z,-158
2019-05-19T00:07:12.357Z,-158
2019-05-19T00:08:12.455Z,-155
2019-05-19T00:08:42.401Z,-153
2019-05-19T00:09:12.429Z,-152
2019-05-19T00:09:42.414Z,-152
2019-05-19T00:10:12.356Z,-152
2019-05-19T00:10:42.462Z,-159
2019-05-19T00:13:42.548Z,-154
2019-05-19T00:14:12.638Z,-156
2019-05-19T00:16:12.745Z,-155
2019-05-19T00:16:42.780Z,-151
2019-05-19T00:17:12.670Z,-152
2019-05-19T00:17:42.676Z,-151
2019-05-19T00:18:12.716Z,-154
2019-05-19T00:18:42.668Z,-154
2019-05-19T00:19:42.874Z,-156
2019-05-19T00:20:12.942Z,-156
2019-05-19T00:20:42.787Z,-153
2019-05-19T00:21:12.773Z,-153
2019-05-19T00:21:42.788Z,-157
2019-05-19T00:22:12.711Z,-157
2019-05-19T00:22:42.785Z,-150
2019-05-19T00:23:12.770Z,-160
2019-05-19T00:24:12.782Z,-153
2019-05-19T00:24:42.783Z,-158
2019-05-19T00:25:12.799Z,-154
2019-05-19T00:25:42.891Z,-154
2019-05-19T00:26:12.850Z,-157
2019-05-19T00:26:42.811Z,-154
2019-05-19T00:27:12.845Z,-158
2019-05-19T00:27:42.874Z,-158
2019-05-19T00:28:12.956Z,-155
2019-05-19T00:28:42.946Z,-154
2019-05-19T00:29:12.985Z,-154
2019-05-19T00:29:42.932Z,-155
2019-05-19T00:30:12.869Z,-154
2019-05-19T00:30:42.943Z,-149
2019-05-19T00:32:13.165Z,-173
2019-05-19T00:32:43.136Z,-156
2019-05-19T00:33:13.125Z,-153
2019-05-19T00:33:43.013Z,-153
2019-05-19T00:34:12.991Z,-154
2019-05-19T00:34:42.991Z,-156
2019-05-19T00:35:13.155Z,-156
2019-05-19T00:35:43.241Z,-153
2019-05-19T00:36:43.214Z,-149
2019-05-19T00:37:13.292Z,-158
2019-05-19T00:37:43.090Z,-156
2019-05-19T00:38:13.146Z,-152
2019-05-19T00:38:43.167Z,-152
2019-05-19T00:39:13.233Z,-150
2019-05-19T00:39:43.303Z,-151
2019-05-19T00:40:13.362Z,-153
2019-05-19T00:40:43.366Z,-153
2019-05-19T00:41:13.408Z,-153
2019-05-19T00:41:43.353Z,-153
2019-05-19T00:42:13.308Z,-151
2019-05-19T00:42:43.397Z,-153
2019-05-19T00:43:13.291Z,-152
2019-05-19T00:43:43.314Z,-152
2019-05-19T00:44:13.359Z,-153
2019-05-19T00:44:43.355Z,-152
2019-05-19T00:45:13.343Z,-150
2019-05-19T00:45:43.350Z,-154
2019-05-19T00:46:13.321Z,-155
2019-05-19T00:46:43.347Z,-155
2019-05-19T00:47:43.554Z,-152
2019-05-19T00:48:13.349Z,-152
2019-05-19T00:48:43.411Z,-153
2019-05-19T00:49:13.431Z,-152
2019-05-19T00:49:43.452Z,-152
2019-05-19T00:50:13.423Z,-154
2019-05-19T00:50:43.489Z,-154
2019-05-19T00:51:13.525Z,-147
2019-05-19T00:51:43.582Z,-151
2019-05-19T00:52:13.591Z,-151
2019-05-19T00:52:43.706Z,-156
2019-05-19T00:55:13.724Z,-149
2019-05-19T00:56:13.717Z,-152
2019-05-19T00:56:43.745Z,-149
2019-05-19T00:58:13.728Z,-151
2019-05-19T00:58:43.740Z,-151
2019-05-19T00:59:13.900Z,-151
2019-05-19T00:59:43.811Z,-145
2019-05-19T01:00:13.880Z,-145
2019-05-19T01:00:43.894Z,-151
2019-05-19T01:01:14.093Z,-151
2019-05-19T01:01:43.808Z,-151
2019-05-19T01:02:13.760Z,-150
2019-05-19T01:02:43.875Z,-149
2019-05-19T01:03:13.839Z,-151
2019-05-19T01:03:43.962Z,-151
2019-05-19T01:04:13.875Z,-151
2019-05-19T01:04:43.799Z,-151
2019-05-19T01:05:13.815Z,-150
2019-05-19T01:05:43.865Z,-150
2019-05-19T01:06:13.890Z,-148
2019-05-19T01:06:43.900Z,-148
2019-05-19T01:07:13.926Z,-153
2019-05-19T01:07:43.907Z,-151
2019-05-19T01:08:13.970Z,-150
2019-05-19T01:08:43.976Z,-150
2019-05-19T01:09:14.044Z,-151
2019-05-19T01:09:44.145Z,-151
2019-05-19T01:10:14.018Z,-155
2019-05-19T01:10:44.037Z,-152
2019-05-19T01:11:44.021Z,-158
2019-05-19T01:12:44.194Z,-155
2019-05-19T01:13:44.423Z,-148
2019-05-19T01:14:15.387Z,-153
2019-05-19T01:14:44.170Z,-155
2019-05-19T01:15:14.115Z,-155
2019-05-19T01:15:44.107Z,-151
2019-05-19T01:16:14.315Z,-152
2019-05-19T01:16:44.342Z,-152
2019-05-19T01:17:14.344Z,-150
2019-05-19T01:17:44.370Z,-148
2019-05-19T01:18:14.153Z,-148
2019-05-19T01:18:44.295Z,-152
2019-05-19T01:19:14.188Z,-152
2019-05-19T01:19:55.103Z,-157
2019-05-19T01:20:14.432Z,-151
2019-05-19T01:20:44.361Z,-151
2019-05-19T01:21:14.438Z,-152
2019-05-19T01:21:44.466Z,-152
2019-05-19T01:22:14.484Z,-152
2019-05-19T01:22:44.337Z,-153
2019-05-19T01:23:14.316Z,-152
2019-05-19T01:23:44.384Z,-152
2019-05-19T01:24:14.288Z,-153
2019-05-19T01:24:44.324Z,-151
2019-05-19T01:25:14.409Z,-150
2019-05-19T01:25:44.386Z,-150
2019-05-19T01:26:14.308Z,-150
2019-05-19T01:26:44.396Z,-153
2019-05-19T01:27:14.389Z,-151
2019-05-19T01:27:44.414Z,-152
2019-05-19T01:28:14.524Z,-146
2019-05-19T01:28:44.416Z,-146
2019-05-19T01:29:14.446Z,-150
2019-05-19T01:29:44.501Z,-150
2019-05-19T01:30:14.487Z,-153
2019-05-19T01:30:44.543Z,-150
2019-05-19T01:31:14.479Z,-150
2019-05-19T01:31:44.499Z,-148
2019-05-19T01:32:14.708Z,-148
2019-05-19T01:32:44.618Z,-151
2019-05-19T01:33:14.651Z,-151
2019-05-19T01:33:44.761Z,-152
2019-05-19T01:34:14.672Z,-155
2019-05-19T01:34:44.583Z,-149
2019-05-19T01:35:14.554Z,-150
2019-05-19T01:35:44.556Z,-147
2019-05-19T01:36:14.863Z,-148
2019-05-19T01:36:44.877Z,-148
2019-05-19T01:37:14.891Z,-151
2019-05-19T01:37:44.785Z,-151
2019-05-19T01:38:14.852Z,-150
2019-05-19T01:38:44.696Z,-150
2019-05-19T01:39:14.697Z,-150
2019-05-19T01:39:44.731Z,-151
2019-05-19T01:40:14.898Z,-146
2019-05-19T01:40:44.890Z,-151
2019-05-19T01:41:14.937Z,-150
2019-05-19T01:41:45.125Z,-150
2019-05-19T01:42:14.951Z,-150
2019-05-19T01:42:44.847Z,-151
2019-05-19T01:43:14.811Z,-150
2019-05-19T01:43:44.829Z,-153
2019-05-19T01:44:14.849Z,-153
2019-05-19T01:44:44.825Z,-152
2019-05-19T01:45:14.892Z,-150
2019-05-19T01:45:44.905Z,-148
2019-05-19T01:46:14.842Z,-149
2019-05-19T01:46:44.982Z,-149
2019-05-19T01:47:14.946Z,-152
2019-05-19T01:47:44.893Z,-150
2019-05-19T01:48:14.892Z,-149
2019-05-19T01:48:44.973Z,-149
2019-05-19T01:49:14.969Z,-149
2019-05-19T01:49:45.133Z,-150
2019-05-19T01:50:17.835Z,-151
2019-05-19T01:50:45.158Z,-155
2019-05-19T01:51:15.093Z,-155
2019-05-19T01:51:45.100Z,-150
2019-05-19T01:52:15.101Z,-151
2019-05-19T01:52:45.330Z,-147
2019-05-19T01:53:15.314Z,-152
2019-05-19T01:53:45.395Z,-153
2019-05-19T01:54:16.767Z,-151
2019-05-19T01:54:45.581Z,-152
2019-05-19T01:55:15.258Z,-152
2019-05-19T01:55:45.278Z,-147
2019-05-19T01:56:15.294Z,-150
2019-05-19T01:56:45.453Z,-152
2019-05-19T01:57:15.412Z,-150
2019-05-19T01:57:45.463Z,-150
2019-05-19T01:58:15.629Z,-152
2019-05-19T01:58:45.601Z,-151
2019-05-19T01:59:15.402Z,-148
2019-05-19T01:59:45.479Z,-148
2019-05-19T02:00:15.434Z,-152
2019-05-19T02:00:45.384Z,-149
2019-05-19T02:01:15.579Z,-149
2019-05-19T02:01:45.551Z,-148
2019-05-19T02:02:15.618Z,-148
2019-05-19T02:02:45.610Z,-148
2019-05-19T02:03:15.642Z,-149
2019-05-19T02:03:45.655Z,-149
2019-05-19T02:04:15.547Z,-148
2019-05-19T02:04:45.611Z,-149
2019-05-19T02:05:15.552Z,-149
2019-05-19T02:05:45.619Z,-151
2019-05-19T02:06:15.749Z,-150
2019-05-19T02:06:45.602Z,-150
2019-05-19T02:07:15.606Z,-150
2019-05-19T02:07:45.621Z,-150
2019-05-19T02:08:15.613Z,-151
2019-05-19T02:08:45.623Z,-149
2019-05-19T02:09:15.712Z,-149
2019-05-19T02:09:45.727Z,-146
2019-05-19T02:10:15.729Z,-154
2019-05-19T02:10:45.759Z,-149
2019-05-19T02:11:15.771Z,-146
2019-05-19T02:11:45.719Z,-146
2019-05-19T02:12:15.702Z,-153
2019-05-19T02:12:45.727Z,-149
2019-05-19T02:13:15.752Z,-149
2019-05-19T02:13:45.880Z,-150
2019-05-19T02:14:15.954Z,-150
2019-05-19T02:14:46.021Z,-148
2019-05-19T02:15:15.814Z,-151
2019-05-19T02:15:45.826Z,-147
2019-05-19T02:16:15.889Z,-147
2019-05-19T02:16:45.810Z,-143
2019-05-19T02:17:15.807Z,-153
2019-05-19T02:17:45.994Z,-149
2019-05-19T02:18:16.035Z,-148
2019-05-19T02:18:46.061Z,-150
2019-05-19T02:19:16.062Z,-149
2019-05-19T02:19:45.986Z,-156
2019-05-19T02:20:16.014Z,-156
2019-05-19T02:20:45.988Z,-151
2019-05-19T02:21:15.962Z,-151
2019-05-19T02:21:46.223Z,-150
2019-05-19T02:22:16.057Z,-146
2019-05-19T02:22:46.021Z,-146
2019-05-19T02:23:16.219Z,-148
2019-05-19T02:23:46.040Z,-149
2019-05-19T02:24:16.002Z,-149
2019-05-19T02:24:46.058Z,-149
2019-05-19T02:25:16.080Z,-153
2019-05-19T02:25:46.122Z,-153
2019-05-19T02:26:16.022Z,-149
2019-05-19T02:26:46.081Z,-149
2019-05-19T02:27:16.045Z,-151
2019-05-19T02:27:46.107Z,-144
2019-05-19T02:28:16.039Z,-148
2019-05-19T02:28:46.067Z,-144
2019-05-19T02:29:16.100Z,-145
2019-05-19T02:29:46.085Z,-145
2019-05-19T02:30:16.270Z,-147
2019-05-19T02:30:46.247Z,-147
2019-05-19T02:31:16.218Z,-144
2019-05-19T02:31:46.339Z,-150
2019-05-19T02:32:16.155Z,-162
2019-05-19T02:32:46.169Z,-150
2019-05-19T02:33:16.141Z,-148
2019-05-19T02:33:46.278Z,-148
2019-05-19T02:34:16.438Z,-151
2019-05-19T02:34:46.429Z,-151
2019-05-19T02:35:16.557Z,-145
2019-05-19T02:35:46.490Z,-149
2019-05-19T02:36:16.432Z,-146
2019-05-19T02:36:46.274Z,-144
2019-05-19T02:37:16.287Z,-144
2019-05-19T02:37:46.442Z,-149
2019-05-19T02:38:16.538Z,-149
2019-05-19T02:38:46.635Z,-144
2019-05-19T02:39:16.511Z,-145
2019-05-19T02:39:46.572Z,-148
2019-05-19T02:40:16.459Z,-149
2019-05-19T02:40:46.495Z,-151
2019-05-19T02:41:16.519Z,-151
2019-05-19T02:41:46.616Z,-144
2019-05-19T02:42:16.673Z,-150
2019-05-19T02:42:46.574Z,-147
2019-05-19T02:43:16.621Z,-147
2019-05-19T02:43:46.629Z,-145
2019-05-19T02:44:16.517Z,-152
2019-05-19T02:44:46.561Z,-150
2019-05-19T02:45:16.643Z,-150
2019-05-19T02:45:46.722Z,-151
2019-05-19T02:46:16.589Z,-150
2019-05-19T02:46:46.716Z,-147
2019-05-19T02:47:16.733Z,-145
2019-05-19T02:47:46.645Z,-152
2019-05-19T02:48:16.676Z,-149
2019-05-19T02:48:46.699Z,-149
2019-05-19T02:49:16.773Z,-150
2019-05-19T02:49:46.739Z,-149
2019-05-19T02:50:16.703Z,-150
2019-05-19T02:50:51.921Z,-150
2019-05-19T02:51:16.734Z,-151
2019-05-19T02:51:46.915Z,-146
2019-05-19T02:52:16.746Z,-147
2019-05-19T02:52:46.826Z,-147
2019-05-19T02:53:16.808Z,-146
2019-05-19T02:53:46.944Z,-145
2019-05-19T02:54:16.862Z,-145
2019-05-19T02:54:46.890Z,-149
2019-05-19T02:55:16.976Z,-149
2019-05-19T02:55:47.041Z,-145
2019-05-19T02:56:16.877Z,-147
2019-05-19T02:56:46.857Z,-145
2019-05-19T02:57:16.853Z,-145
2019-05-19T02:57:46.954Z,-149
2019-05-19T02:58:17.094Z,-148
2019-05-19T02:58:47.117Z,-148
2019-05-19T02:59:17.022Z,-145
2019-05-19T02:59:47.058Z,-144
2019-05-19T03:00:16.965Z,-144
2019-05-19T03:00:47.026Z,-145
2019-05-19T03:01:17.008Z,-145
2019-05-19T03:01:47.263Z,-140
2019-05-19T03:02:17.092Z,-144
2019-05-19T03:02:47.149Z,-148
2019-05-19T03:03:17.238Z,-144
2019-05-19T03:03:47.442Z,-145
2019-05-19T03:04:17.148Z,-149
2019-05-19T03:04:47.266Z,-147
2019-05-19T03:05:17.177Z,-144
2019-05-19T03:05:47.214Z,-144
2019-05-19T03:06:17.117Z,-141
2019-05-19T03:06:47.111Z,-143
2019-05-19T03:07:17.174Z,-145
2019-05-19T03:07:47.155Z,-145
2019-05-19T03:08:17.189Z,-148
2019-05-19T03:08:47.334Z,-148
2019-05-19T03:09:17.250Z,-143
2019-05-19T03:09:47.179Z,-143
2019-05-19T03:10:17.332Z,-145
2019-05-19T03:10:47.374Z,-145
2019-05-19T03:11:17.323Z,-145
2019-05-19T03:11:47.308Z,-148
2019-05-19T03:12:17.321Z,-148
2019-05-19T03:12:47.366Z,-145
2019-05-19T03:13:17.296Z,-143
2019-05-19T03:13:47.435Z,-143
2019-05-19T03:14:17.486Z,-143
2019-05-19T03:14:47.514Z,-145
2019-05-19T03:15:17.561Z,-145
2019-05-19T03:15:47.632Z,-147
2019-05-19T03:16:17.508Z,-144
2019-05-19T03:16:47.496Z,-145
2019-05-19T03:17:17.469Z,-144
2019-05-19T03:17:47.536Z,-145
2019-05-19T03:18:17.660Z,-146
2019-05-19T03:18:47.602Z,-146
2019-05-19T03:19:17.617Z,-145
2019-05-19T03:19:47.730Z,-151
2019-05-19T03:20:17.482Z,-147
2019-05-19T03:20:47.545Z,-147
2019-05-19T03:21:17.510Z,-143
2019-05-19T03:21:47.596Z,-143
2019-05-19T03:22:17.636Z,-149
2019-05-19T03:22:47.723Z,-149
2019-05-19T03:23:17.644Z,-149
2019-05-19T03:23:47.782Z,-147
2019-05-19T03:24:17.627Z,-149
2019-05-19T03:24:47.677Z,-149
2019-05-19T03:25:17.742Z,-149
2019-05-19T03:25:47.605Z,-149
2019-05-19T03:26:17.665Z,-152
2019-05-19T03:26:47.610Z,-152
2019-05-19T03:27:17.675Z,-147
2019-05-19T03:27:47.632Z,-149
2019-05-19T03:28:17.643Z,-149
2019-05-19T03:28:47.661Z,-147
2019-05-19T03:29:17.730Z,-151
2019-05-19T03:29:47.713Z,-151
2019-05-19T03:30:17.683Z,-151
2019-05-19T03:30:47.875Z,-149
2019-05-19T03:31:17.756Z,-148
2019-05-19T03:31:47.887Z,-147
2019-05-19T03:32:17.767Z,-151
2019-05-19T03:32:47.756Z,-149
2019-05-19T03:33:17.875Z,-149
2019-05-19T03:33:47.907Z,-146
2019-05-19T03:34:17.950Z,-150
2019-05-19T03:34:47.915Z,-150
2019-05-19T03:35:17.937Z,-150
2019-05-19T03:35:48.422Z,-142
2019-05-19T03:36:18.053Z,-148
2019-05-19T03:36:48.085Z,-150
2019-05-19T03:37:18.115Z,-150
2019-05-19T03:37:48.213Z,-152
2019-05-19T03:38:18.181Z,-152
2019-05-19T03:38:48.156Z,-154
2019-05-19T03:39:18.255Z,-154
2019-05-19T03:39:48.139Z,-151
2019-05-19T03:40:18.065Z,-148
2019-05-19T03:40:48.148Z,-149
2019-05-19T03:41:18.136Z,-145
2019-05-19T03:41:48.263Z,-145
2019-05-19T03:42:18.331Z,-149
2019-05-19T03:42:48.266Z,-149
2019-05-19T03:43:18.298Z,-150
2019-05-19T03:43:48.198Z,-149
2019-05-19T03:44:18.238Z,-148
2019-05-19T03:44:48.256Z,-148
2019-05-19T03:45:18.228Z,-145
2019-05-19T03:45:48.225Z,-145
2019-05-19T03:46:48.296Z,-147
2019-05-19T03:47:18.259Z,-145
2019-05-19T03:47:48.323Z,-145
2019-05-19T03:48:18.260Z,-148
2019-05-19T03:48:48.219Z,-148
2019-05-19T03:49:18.265Z,-147
2019-05-19T03:49:48.390Z,-146
2019-05-19T03:50:18.392Z,-149
2019-05-19T03:50:48.331Z,-148
2019-05-19T03:51:29.836Z,-148
2019-05-19T03:51:48.358Z,-148
2019-05-19T03:52:18.497Z,-144
2019-05-19T03:52:48.318Z,-144
2019-05-19T03:53:18.350Z,-145
2019-05-19T03:53:48.486Z,-149
2019-05-19T03:54:18.514Z,-145
2019-05-19T03:54:48.507Z,-147
2019-05-19T03:55:18.546Z,-147
2019-05-19T03:55:49.058Z,-146
2019-05-19T03:56:18.456Z,-144
2019-05-19T03:56:48.465Z,-150
2019-05-19T03:57:18.440Z,-148
2019-05-19T03:57:48.664Z,-148
2019-05-19T03:58:18.596Z,-148
2019-05-19T03:58:48.570Z,-145
2019-05-19T03:59:18.626Z,-144
2019-05-19T03:59:48.668Z,-144
2019-05-19T04:00:18.548Z,-145
2019-05-19T04:00:48.517Z,-148
2019-05-19T04:01:18.553Z,-146
2019-05-19T04:01:48.803Z,-145
2019-05-19T04:02:18.693Z,-148
2019-05-19T04:02:48.693Z,-146
2019-05-19T04:03:18.710Z,-146
2019-05-19T04:03:49.369Z,-146
2019-05-19T04:04:18.625Z,-146
2019-05-19T04:04:48.597Z,-141
2019-05-19T04:05:18.717Z,-146
2019-05-19T04:05:48.633Z,-144
2019-05-19T04:06:18.642Z,-144
2019-05-19T04:06:48.672Z,-146
2019-05-19T04:07:18.690Z,-146
2019-05-19T04:07:48.631Z,-144
2019-05-19T04:08:18.654Z,-146
2019-05-19T04:08:48.801Z,-148
2019-05-19T04:09:18.670Z,-148
2019-05-19T04:09:48.719Z,-147
2019-05-19T04:10:18.850Z,-147
2019-05-19T04:10:48.751Z,-145
2019-05-19T04:11:18.812Z,-143
2019-05-19T04:11:48.884Z,-143
2019-05-19T04:12:18.821Z,-147
2019-05-19T04:12:48.862Z,-147
2019-05-19T04:13:18.837Z,-144
2019-05-19T04:13:48.946Z,-144
2019-05-19T04:14:18.994Z,-146
2019-05-19T04:14:48.919Z,-146
2019-05-19T04:15:18.992Z,-144
2019-05-19T04:15:49.037Z,-148
2019-05-19T04:16:18.948Z,-147
2019-05-19T04:16:48.983Z,-150
2019-05-19T04:17:18.924Z,-144
2019-05-19T04:17:49.036Z,-144
2019-05-19T04:18:19.167Z,-148
2019-05-19T04:18:49.185Z,-150
2019-05-19T04:19:19.137Z,-135
2019-05-19T04:19:49.444Z,-129
2019-05-19T04:20:19.135Z,-126
2019-05-19T04:20:49.035Z,-135
2019-05-19T04:21:19.012Z,-124
2019-05-19T04:21:49.729Z,-130
2019-05-19T04:22:19.245Z,-130
2019-05-19T04:22:49.246Z,-130
2019-05-19T04:23:19.166Z,-128
2019-05-19T04:23:49.245Z,-124
2019-05-19T04:24:19.201Z,-123
2019-05-19T04:24:49.195Z,-120
2019-05-19T04:25:19.287Z,-125
2019-05-19T04:25:49.194Z,-124
2019-05-19T04:26:19.201Z,-124
2019-05-19T04:26:49.200Z,-121
2019-05-19T04:27:19.199Z,-123
2019-05-19T04:27:49.228Z,-119
2019-05-19T04:28:19.219Z,-121
2019-05-19T04:28:49.163Z,-123
2019-05-19T04:29:19.270Z,-128
2019-05-19T04:29:49.252Z,-130
2019-05-19T04:30:19.273Z,-127
2019-05-19T04:30:49.461Z,-129
2019-05-19T04:31:19.283Z,-129
2019-05-19T04:31:49.365Z,-134
2019-05-19T04:32:19.306Z,-131
2019-05-19T04:32:49.259Z,-139
2019-05-19T04:33:19.373Z,-150
2019-05-19T04:33:49.432Z,-139
2019-05-19T04:34:19.570Z,-137
2019-05-19T04:34:49.494Z,-150
2019-05-19T04:35:19.564Z,-147
2019-05-19T04:35:49.620Z,-147
2019-05-19T04:36:19.669Z,-134
2019-05-19T04:36:49.524Z,-135
2019-05-19T04:37:19.525Z,-137
2019-05-19T04:37:49.629Z,-137
2019-05-19T04:38:19.717Z,-141
2019-05-19T04:38:49.673Z,-151
2019-05-19T04:39:19.720Z,-152
2019-05-19T04:39:49.867Z,-146
2019-05-19T04:40:19.720Z,-146
2019-05-19T04:40:49.654Z,-147
2019-05-19T04:41:19.614Z,-136
2019-05-19T04:41:49.700Z,-135
2019-05-19T04:42:19.751Z,-135
2019-05-19T04:42:49.809Z,-141
2019-05-19T04:43:20.008Z,-148
2019-05-19T04:43:49.917Z,-148
2019-05-19T04:44:19.806Z,-149
2019-05-19T04:44:49.753Z,-144
2019-05-19T04:45:19.742Z,-148
2019-05-19T04:45:49.769Z,-148
2019-05-19T04:46:19.784Z,-154
2019-05-19T04:46:49.842Z,-137
2019-05-19T04:47:19.810Z,-137
2019-05-19T04:47:49.834Z,-133
2019-05-19T04:48:19.878Z,-131
2019-05-19T04:48:49.890Z,-129
2019-05-19T04:49:19.876Z,-130
2019-05-19T04:49:49.888Z,-128
2019-05-19T04:50:19.893Z,-128
2019-05-19T04:50:49.881Z,-136
2019-05-19T04:51:19.916Z,-136
2019-05-19T04:52:05.386Z,-151
2019-05-19T04:52:19.917Z,-145
2019-05-19T04:52:49.958Z,-134
2019-05-19T04:53:19.896Z,-134
2019-05-19T04:53:49.931Z,-130
2019-05-19T04:54:20.152Z,-134
2019-05-19T04:54:50.010Z,-135
2019-05-19T04:55:20.102Z,-133
2019-05-19T04:55:50.165Z,-126
2019-05-19T04:56:20.079Z,-126
2019-05-19T04:56:49.983Z,-126
2019-05-19T04:57:19.998Z,-126
2019-05-19T04:57:50.009Z,-126
2019-05-19T04:58:20.182Z,-128
2019-05-19T04:58:50.195Z,-123
2019-05-19T04:59:20.245Z,-120
2019-05-19T04:59:50.248Z,-121
2019-05-19T05:00:20.123Z,-121
2019-05-19T05:00:50.075Z,-125
2019-05-19T05:01:20.123Z,-120
2019-05-19T05:01:50.121Z,-122
2019-05-19T05:02:20.187Z,-122
2019-05-19T05:02:50.358Z,-119
2019-05-19T05:03:20.533Z,-119
2019-05-19T05:03:50.326Z,-119
2019-05-19T05:04:20.249Z,-117
2019-05-19T05:04:50.168Z,-119
2019-05-19T05:05:20.188Z,-118
2019-05-19T05:05:50.219Z,-118
2019-05-19T05:06:20.285Z,-120
2019-05-19T05:06:50.289Z,-115
2019-05-19T05:07:20.244Z,-118
2019-05-19T05:07:50.279Z,-118
2019-05-19T05:08:29.300Z,-116
2019-05-19T05:08:50.303Z,-115
2019-05-19T05:09:20.408Z,-146
2019-05-19T05:09:50.274Z,-123
2019-05-19T05:10:20.530Z,-125
2019-05-19T05:10:50.362Z,-120
2019-05-19T05:11:20.547Z,-119
2019-05-19T05:11:50.433Z,-121
2019-05-19T05:12:20.385Z,-124
2019-05-19T05:12:50.514Z,-126
2019-05-19T05:13:20.484Z,-126
2019-05-19T05:13:50.397Z,-128
2019-05-19T05:14:20.780Z,-126
2019-05-19T05:14:50.637Z,-131
2019-05-19T05:15:20.837Z,-131
2019-05-19T05:15:50.712Z,-128
2019-05-19T05:16:20.614Z,-128
2019-05-19T05:16:50.547Z,-128
2019-05-19T05:17:20.516Z,-128
2019-05-19T05:17:50.566Z,-131
2019-05-19T05:18:20.897Z,-129
2019-05-19T05:18:50.828Z,-124
2019-05-19T05:19:20.898Z,-127
2019-05-19T05:19:50.802Z,-127
2019-05-19T05:20:21.088Z,-127
2019-05-19T05:20:50.717Z,-126
2019-05-19T05:21:20.636Z,-126
2019-05-19T05:21:50.641Z,-128
2019-05-19T05:22:22.305Z,-129
2019-05-19T05:22:50.896Z,-127
2019-05-19T05:23:20.913Z,-127
2019-05-19T05:23:50.834Z,-124
2019-05-19T05:24:20.941Z,-125
2019-05-19T05:24:50.685Z,-124
2019-05-19T05:25:20.795Z,-126
2019-05-19T05:25:50.771Z,-125
2019-05-19T05:26:20.695Z,-135
2019-05-19T05:26:50.718Z,-126
2019-05-19T05:27:20.727Z,-128
2019-05-19T05:27:50.739Z,-125
2019-05-19T05:28:20.776Z,-124
2019-05-19T05:28:50.793Z,-121
2019-05-19T05:29:20.781Z,-117
2019-05-19T05:29:50.845Z,-122
2019-05-19T05:30:21.011Z,-111
2019-05-19T05:30:50.967Z,-109
2019-05-19T05:31:20.953Z,-117
2019-05-19T05:31:50.820Z,-113
2019-05-19T05:32:20.931Z,-118
2019-05-19T05:32:50.833Z,-113
2019-05-19T05:33:20.852Z,-121
2019-05-19T05:33:50.866Z,-124
2019-05-19T05:34:21.161Z,-115
2019-05-19T05:34:51.077Z,-119
2019-05-19T05:35:21.097Z,-121
2019-05-19T05:35:51.184Z,-120
2019-05-19T05:36:21.044Z,-120
2019-05-19T05:36:50.971Z,-117
2019-05-19T05:37:20.956Z,-117
2019-05-19T05:37:50.923Z,-122
2019-05-19T05:38:21.114Z,-114
2019-05-19T05:38:51.072Z,-118
2019-05-19T05:39:21.236Z,-114
2019-05-19T05:39:51.298Z,-114
2019-05-19T05:40:21.245Z,-115
2019-05-19T05:40:51.075Z,-109
2019-05-19T05:41:21.203Z,-111
2019-05-19T05:41:51.144Z,-112
2019-05-19T05:42:21.263Z,-115
2019-05-19T05:42:51.260Z,-117
2019-05-19T05:43:21.391Z,-148
2019-05-19T05:43:51.438Z,-117
2019-05-19T05:44:21.306Z,-105
2019-05-19T05:44:51.237Z,-110
2019-05-19T05:45:21.233Z,-102
2019-05-19T05:45:51.170Z,-107
2019-05-19T05:46:21.345Z,-97
2019-05-19T05:46:51.396Z,-95
2019-05-19T05:47:21.292Z,-90
2019-05-19T05:47:51.280Z,-88
2019-05-19T05:48:21.386Z,-84
2019-05-19T05:48:51.300Z,-74
2019-05-19T05:49:21.287Z,-76
2019-05-19T05:49:51.265Z,-74
2019-05-19T05:50:21.361Z,-71
2019-05-19T05:50:51.390Z,-71
2019-05-19T05:51:21.457Z,-70
2019-05-19T05:51:51.489Z,-69
2019-05-19T05:52:36.045Z,-67
2019-05-19T05:52:51.449Z,-34
2019-05-19T05:53:21.345Z,-80
2019-05-19T05:53:51.416Z,-78
2019-05-19T05:54:21.530Z,-80
2019-05-19T05:54:51.511Z,-74
2019-05-19T05:55:21.633Z,-78
2019-05-19T05:55:51.702Z,-79
2019-05-19T05:56:21.447Z,-77
2019-05-19T05:56:51.501Z,-82
2019-05-19T05:57:21.515Z,-85
2019-05-19T05:57:51.748Z,-88
2019-05-19T05:58:21.664Z,-88
2019-05-19T05:58:51.649Z,-96
2019-05-19T05:59:21.656Z,-101
2019-05-19T05:59:51.547Z,-98
2019-05-19T06:00:21.568Z,-127
2019-05-19T06:00:51.608Z,-112
2019-05-19T06:01:21.536Z,-104
2019-05-19T06:01:51.722Z,-107
2019-05-19T06:02:21.678Z,-105
2019-05-19T06:02:51.827Z,-128
2019-05-19T06:03:21.909Z,-115
2019-05-19T06:03:51.646Z,-112
2019-05-19T06:04:21.627Z,-111
2019-05-19T06:04:51.632Z,-113
2019-05-19T06:05:21.625Z,-110
2019-05-19T06:05:51.616Z,-106
2019-05-19T06:06:21.663Z,-108
2019-05-19T06:06:51.673Z,-108
2019-05-19T06:07:21.631Z,-107
2019-05-19T06:07:51.691Z,-108
2019-05-19T06:08:21.690Z,-105
2019-05-19T06:08:51.791Z,-103
2019-05-19T06:09:21.755Z,-100
2019-05-19T06:09:51.744Z,-107
2019-05-19T06:10:21.796Z,-107
2019-05-19T06:10:51.882Z,-98
2019-05-19T06:11:21.890Z,-104
2019-05-19T06:11:51.949Z,-102
2019-05-19T06:12:21.849Z,-97
2019-05-19T06:12:51.825Z,-93
2019-05-19T06:13:21.909Z,-111
2019-05-19T06:13:52.048Z,-112
2019-05-19T06:14:22.115Z,-88
2019-05-19T06:14:52.030Z,-92
2019-05-19T06:15:22.028Z,-88
2019-05-19T06:15:51.951Z,-82
2019-05-19T06:16:21.904Z,-77
2019-05-19T06:16:51.907Z,-137
2019-05-19T06:17:21.909Z,-110
2019-05-19T06:17:52.093Z,-99
2019-05-19T06:18:22.040Z,-83
2019-05-19T06:18:52.146Z,-79
2019-05-19T06:19:22.131Z,-81
2019-05-19T06:19:52.074Z,-83
2019-05-19T06:20:21.970Z,-81
2019-05-19T06:20:52.050Z,-82
2019-05-19T06:21:22.022Z,-85
2019-05-19T06:21:52.205Z,-82
2019-05-19T06:22:22.186Z,-75
2019-05-19T06:22:56.215Z,-68
2019-05-19T06:23:22.210Z,-73
2019-05-19T06:23:52.146Z,-74
2019-05-19T06:24:22.129Z,-79
2019-05-19T06:24:52.084Z,-94
2019-05-19T06:25:22.159Z,-95
2019-05-19T06:25:52.128Z,-89
2019-05-19T06:26:22.139Z,-91
2019-05-19T06:26:52.135Z,-80
2019-05-19T06:27:22.124Z,-79
2019-05-19T06:27:52.142Z,-82
2019-05-19T06:28:22.138Z,-82
2019-05-19T06:28:52.088Z,-80
2019-05-19T06:29:22.184Z,-78
2019-05-19T06:29:52.292Z,-72
2019-05-19T06:30:22.307Z,-77
2019-05-19T06:30:52.206Z,-73
2019-05-19T06:31:22.342Z,-71
2019-05-19T06:31:52.245Z,-68
2019-05-19T06:32:22.219Z,-67
2019-05-19T06:32:52.234Z,-64
2019-05-19T06:33:22.358Z,-146
2019-05-19T06:33:52.387Z,-130
2019-05-19T06:34:22.480Z,-112
2019-05-19T06:34:52.569Z,-109
2019-05-19T06:35:22.699Z,-63
2019-05-19T06:35:52.435Z,-63
2019-05-19T06:36:22.378Z,-83
2019-05-19T06:36:54.920Z,-76
2019-05-19T06:37:22.479Z,-69
2019-05-19T06:37:52.580Z,-85
2019-05-19T06:38:22.583Z,-74
2019-05-19T06:38:52.635Z,-52
2019-05-19T06:39:22.606Z,-44
2019-05-19T06:39:52.471Z,-35
2019-05-19T06:40:22.554Z,-29
2019-05-19T06:40:52.537Z,-32
2019-05-19T06:41:22.794Z,-29
2019-05-19T06:41:52.771Z,-25
2019-05-19T06:42:22.729Z,-16
2019-05-19T06:42:52.654Z,-9
2019-05-19T06:43:22.722Z,-13
2019-05-19T06:43:52.554Z,-12
2019-05-19T06:44:22.620Z,-4
2019-05-19T06:44:52.549Z,0
2019-05-19T06:45:22.663Z,2
2019-05-19T06:45:52.594Z,18
2019-05-19T06:46:22.624Z,35
2019-05-19T06:46:52.725Z,42
2019-05-19T06:47:22.723Z,46
2019-05-19T06:47:52.637Z,43
2019-05-19T06:48:22.741Z,55
2019-05-19T06:48:52.744Z,49
2019-05-19T06:49:22.805Z,53
2019-05-19T06:49:54.929Z,60
2019-05-19T06:50:22.883Z,60
2019-05-19T06:50:52.886Z,-160
2019-05-19T06:51:22.795Z,-87
2019-05-19T06:51:52.730Z,12
2019-05-19T06:52:22.836Z,8
2019-05-19T06:52:52.942Z,53
2019-05-19T06:53:22.967Z,55
2019-05-19T06:53:52.983Z,42
2019-05-19T06:54:23.214Z,49
2019-05-19T06:54:53.062Z,36
2019-05-19T06:55:23.116Z,17